sensor_id;sensor_type;location;lat;lon;timestamp;temperature;humidity
38223;DHT22;24024;51.186;6.458;2023-11-18T00:00:15;10.20;68.40
38223;DHT22;24024;51.186;6.458;2023-11-18T00:02:43;10.40;68.20
38223;DHT22;24024;51.186;6.458;2023-11-18T00:05:11;10.50;67.80
38223;DHT22;24024;51.186;6.458;2023-11-18T00:07:41;10.60;67.50
38223;DHT22;24024;51.186;6.458;2023-11-18T00:10:08;10.40;67.90
38223;DHT22;24024;51.186;6.458;2023-11-18T00:12:37;10.50;67.80
38223;DHT22;24024;51.186;6.458;2023-11-18T00:15:08;10.30;67.90
38223;DHT22;24024;51.186;6.458;2023-11-18T00:17:39;10.30;68.10
38223;DHT22;24024;51.186;6.458;2023-11-18T00:20:07;9.90;69.10
38223;DHT22;24024;51.186;6.458;2023-11-18T00:22:39;9.40;70.50
38223;DHT22;24024;51.186;6.458;2023-11-18T00:25:08;9.60;70.40
38223;DHT22;24024;51.186;6.458;2023-11-18T00:27:38;9.80;70.10
38223;DHT22;24024;51.186;6.458;2023-11-18T00:30:05;9.80;69.40
38223;DHT22;24024;51.186;6.458;2023-11-18T00:32:34;9.80;69.70
38223;DHT22;24024;51.186;6.458;2023-11-18T00:35:02;9.80;69.00
38223;DHT22;24024;51.186;6.458;2023-11-18T00:37:31;9.70;69.80
38223;DHT22;24024;51.186;6.458;2023-11-18T00:39:58;9.50;69.80
38223;DHT22;24024;51.186;6.458;2023-11-18T00:42:25;9.40;70.10
38223;DHT22;24024;51.186;6.458;2023-11-18T00:44:54;9.60;69.90
38223;DHT22;24024;51.186;6.458;2023-11-18T00:47:23;9.60;69.70
38223;DHT22;24024;51.186;6.458;2023-11-18T00:49:50;9.80;69.00
38223;DHT22;24024;51.186;6.458;2023-11-18T00:52:19;9.90;68.10
38223;DHT22;24024;51.186;6.458;2023-11-18T00:54:46;10.00;68.40
38223;DHT22;24024;51.186;6.458;2023-11-18T00:57:12;9.70;68.60
38223;DHT22;24024;51.186;6.458;2023-11-18T00:59:45;9.70;68.30
38223;DHT22;24024;51.186;6.458;2023-11-18T01:02:14;9.80;68.50
38223;DHT22;24024;51.186;6.458;2023-11-18T01:04:43;9.80;68.20
38223;DHT22;24024;51.186;6.458;2023-11-18T01:07:12;9.90;67.90
38223;DHT22;24024;51.186;6.458;2023-11-18T01:09:39;10.00;67.60
38223;DHT22;24024;51.186;6.458;2023-11-18T01:12:09;9.90;67.70
38223;DHT22;24024;51.186;6.458;2023-11-18T01:14:39;9.80;68.10
38223;DHT22;24024;51.186;6.458;2023-11-18T01:17:06;10.00;67.40
38223;DHT22;24024;51.186;6.458;2023-11-18T01:19:33;10.20;66.90
38223;DHT22;24024;51.186;6.458;2023-11-18T01:22:02;10.30;66.40
38223;DHT22;24024;51.186;6.458;2023-11-18T01:24:33;10.20;66.40
38223;DHT22;24024;51.186;6.458;2023-11-18T01:27:00;10.20;66.50
38223;DHT22;24024;51.186;6.458;2023-11-18T01:29:27;10.20;66.60
38223;DHT22;24024;51.186;6.458;2023-11-18T01:31:54;10.20;66.30
38223;DHT22;24024;51.186;6.458;2023-11-18T01:34:25;10.40;66.10
38223;DHT22;24024;51.186;6.458;2023-11-18T01:36:52;10.20;66.30
38223;DHT22;24024;51.186;6.458;2023-11-18T01:39:19;10.20;66.50
38223;DHT22;24024;51.186;6.458;2023-11-18T01:41:47;10.30;66.30
38223;DHT22;24024;51.186;6.458;2023-11-18T01:44:18;10.40;66.10
38223;DHT22;24024;51.186;6.458;2023-11-18T01:46:53;10.10;65.90
38223;DHT22;24024;51.186;6.458;2023-11-18T01:49:20;10.20;66.10
38223;DHT22;24024;51.186;6.458;2023-11-18T01:51:50;10.10;66.40
38223;DHT22;24024;51.186;6.458;2023-11-18T01:54:18;10.10;66.00
38223;DHT22;24024;51.186;6.458;2023-11-18T01:56:48;9.90;66.70
38223;DHT22;24024;51.186;6.458;2023-11-18T01:59:16;9.60;67.60
38223;DHT22;24024;51.186;6.458;2023-11-18T02:01:52;9.60;67.20
38223;DHT22;24024;51.186;6.458;2023-11-18T02:04:21;9.50;67.80
38223;DHT22;24024;51.186;6.458;2023-11-18T02:06:49;9.60;67.40
38223;DHT22;24024;51.186;6.458;2023-11-18T02:09:20;9.60;67.50
38223;DHT22;24024;51.186;6.458;2023-11-18T02:12:21;9.70;67.20
38223;DHT22;24024;51.186;6.458;2023-11-18T02:14:50;9.70;67.10
38223;DHT22;24024;51.186;6.458;2023-11-18T02:17:20;9.80;66.90
38223;DHT22;24024;51.186;6.458;2023-11-18T02:19:52;9.90;66.90
38223;DHT22;24024;51.186;6.458;2023-11-18T02:22:19;9.70;66.70
38223;DHT22;24024;51.186;6.458;2023-11-18T02:24:48;9.50;67.00
38223;DHT22;24024;51.186;6.458;2023-11-18T02:27:15;9.50;67.80
38223;DHT22;24024;51.186;6.458;2023-11-18T02:29:45;9.40;67.70
38223;DHT22;24024;51.186;6.458;2023-11-18T02:34:58;9.60;67.70
38223;DHT22;24024;51.186;6.458;2023-11-18T02:37:29;9.60;67.30
38223;DHT22;24024;51.186;6.458;2023-11-18T02:40:03;9.50;67.60
38223;DHT22;24024;51.186;6.458;2023-11-18T02:42:43;9.10;68.20
38223;DHT22;24024;51.186;6.458;2023-11-18T02:45:13;9.10;69.50
38223;DHT22;24024;51.186;6.458;2023-11-18T02:47:44;9.10;69.40
38223;DHT22;24024;51.186;6.458;2023-11-18T02:50:17;9.20;68.90
38223;DHT22;24024;51.186;6.458;2023-11-18T02:52:46;9.30;68.50
38223;DHT22;24024;51.186;6.458;2023-11-18T02:55:15;9.40;68.00
38223;DHT22;24024;51.186;6.458;2023-11-18T02:57:44;9.00;69.60
38223;DHT22;24024;51.186;6.458;2023-11-18T03:00:13;9.00;69.60
38223;DHT22;24024;51.186;6.458;2023-11-18T03:02:45;9.20;69.30
38223;DHT22;24024;51.186;6.458;2023-11-18T03:05:21;9.40;68.50
38223;DHT22;24024;51.186;6.458;2023-11-18T03:07:48;9.10;69.00
38223;DHT22;24024;51.186;6.458;2023-11-18T03:10:23;9.20;69.00
38223;DHT22;24024;51.186;6.458;2023-11-18T03:12:51;9.20;69.20
38223;DHT22;24024;51.186;6.458;2023-11-18T03:15:20;9.20;69.30
38223;DHT22;24024;51.186;6.458;2023-11-18T03:17:51;9.40;68.30
38223;DHT22;24024;51.186;6.458;2023-11-18T03:20:19;9.30;68.60
38223;DHT22;24024;51.186;6.458;2023-11-18T03:22:46;9.40;68.70
38223;DHT22;24024;51.186;6.458;2023-11-18T03:25:14;9.40;68.70
38223;DHT22;24024;51.186;6.458;2023-11-18T03:27:41;9.40;68.40
38223;DHT22;24024;51.186;6.458;2023-11-18T03:30:08;9.50;68.60
38223;DHT22;24024;51.186;6.458;2023-11-18T03:32:37;9.50;68.70
38223;DHT22;24024;51.186;6.458;2023-11-18T03:35:05;9.30;68.60
38223;DHT22;24024;51.186;6.458;2023-11-18T03:37:36;9.30;69.30
38223;DHT22;24024;51.186;6.458;2023-11-18T03:40:14;9.40;69.10
38223;DHT22;24024;51.186;6.458;2023-11-18T03:42:44;9.40;69.10
38223;DHT22;24024;51.186;6.458;2023-11-18T03:45:13;9.50;68.50
38223;DHT22;24024;51.186;6.458;2023-11-18T03:47:41;9.10;69.20
38223;DHT22;24024;51.186;6.458;2023-11-18T03:50:09;8.90;71.00
38223;DHT22;24024;51.186;6.458;2023-11-18T03:52:39;9.30;69.70
38223;DHT22;24024;51.186;6.458;2023-11-18T03:55:09;9.20;69.40
38223;DHT22;24024;51.186;6.458;2023-11-18T03:57:35;9.30;69.70
38223;DHT22;24024;51.186;6.458;2023-11-18T04:00:02;9.20;69.40
38223;DHT22;24024;51.186;6.458;2023-11-18T04:02:32;9.30;69.30
38223;DHT22;24024;51.186;6.458;2023-11-18T04:05:03;9.30;69.30
38223;DHT22;24024;51.186;6.458;2023-11-18T04:07:32;9.30;69.70
38223;DHT22;24024;51.186;6.458;2023-11-18T04:10:02;9.10;69.90
38223;DHT22;24024;51.186;6.458;2023-11-18T04:12:29;9.30;69.90
38223;DHT22;24024;51.186;6.458;2023-11-18T04:14:57;9.60;69.10
38223;DHT22;24024;51.186;6.458;2023-11-18T04:17:23;9.40;69.30
38223;DHT22;24024;51.186;6.458;2023-11-18T04:19:54;9.10;70.50
38223;DHT22;24024;51.186;6.458;2023-11-18T04:22:24;9.20;70.30
38223;DHT22;24024;51.186;6.458;2023-11-18T04:24:50;9.30;70.20
38223;DHT22;24024;51.186;6.458;2023-11-18T04:27:20;9.40;69.90
38223;DHT22;24024;51.186;6.458;2023-11-18T04:29:48;9.50;69.40
38223;DHT22;24024;51.186;6.458;2023-11-18T04:32:20;9.50;69.40
38223;DHT22;24024;51.186;6.458;2023-11-18T04:34:47;9.40;69.60
38223;DHT22;24024;51.186;6.458;2023-11-18T04:37:15;9.20;70.30
38223;DHT22;24024;51.186;6.458;2023-11-18T04:39:42;9.30;70.40
38223;DHT22;24024;51.186;6.458;2023-11-18T04:42:11;9.20;70.70
38223;DHT22;24024;51.186;6.458;2023-11-18T04:44:38;9.30;70.60
38223;DHT22;24024;51.186;6.458;2023-11-18T04:47:07;9.20;71.10
38223;DHT22;24024;51.186;6.458;2023-11-18T04:49:34;8.90;72.00
38223;DHT22;24024;51.186;6.458;2023-11-18T04:52:01;9.00;71.30
38223;DHT22;24024;51.186;6.458;2023-11-18T04:54:28;8.80;72.70
38223;DHT22;24024;51.186;6.458;2023-11-18T04:56:55;9.00;71.70
38223;DHT22;24024;51.186;6.458;2023-11-18T04:59:22;9.20;70.90
38223;DHT22;24024;51.186;6.458;2023-11-18T05:01:49;9.00;71.20
38223;DHT22;24024;51.186;6.458;2023-11-18T05:04:19;8.90;72.30
38223;DHT22;24024;51.186;6.458;2023-11-18T05:06:46;9.00;71.80
38223;DHT22;24024;51.186;6.458;2023-11-18T05:09:13;9.10;71.70
38223;DHT22;24024;51.186;6.458;2023-11-18T05:11:42;9.10;71.20
38223;DHT22;24024;51.186;6.458;2023-11-18T05:14:09;9.10;71.70
38223;DHT22;24024;51.186;6.458;2023-11-18T05:16:36;9.20;71.10
38223;DHT22;24024;51.186;6.458;2023-11-18T05:19:02;9.40;70.70
38223;DHT22;24024;51.186;6.458;2023-11-18T05:21:31;9.10;71.20
38223;DHT22;24024;51.186;6.458;2023-11-18T05:23:58;8.60;72.80
38223;DHT22;24024;51.186;6.458;2023-11-18T05:26:25;8.70;73.30
38223;DHT22;24024;51.186;6.458;2023-11-18T05:28:53;8.70;72.90
38223;DHT22;24024;51.186;6.458;2023-11-18T05:31:22;8.80;72.90
38223;DHT22;24024;51.186;6.458;2023-11-18T05:33:49;9.30;71.50
38223;DHT22;24024;51.186;6.458;2023-11-18T05:36:21;9.50;70.20
38223;DHT22;24024;51.186;6.458;2023-11-18T05:38:56;9.10;71.10
38223;DHT22;24024;51.186;6.458;2023-11-18T05:41:23;9.00;72.30
38223;DHT22;24024;51.186;6.458;2023-11-18T05:43:57;9.20;71.90
38223;DHT22;24024;51.186;6.458;2023-11-18T05:46:25;9.10;71.90
38223;DHT22;24024;51.186;6.458;2023-11-18T05:48:55;9.10;71.70
38223;DHT22;24024;51.186;6.458;2023-11-18T05:51:25;9.40;70.70
38223;DHT22;24024;51.186;6.458;2023-11-18T05:53:53;9.50;70.50
38223;DHT22;24024;51.186;6.458;2023-11-18T05:56:20;9.40;70.50
38223;DHT22;24024;51.186;6.458;2023-11-18T05:58:53;9.50;70.70
38223;DHT22;24024;51.186;6.458;2023-11-18T06:01:20;9.40;70.50
38223;DHT22;24024;51.186;6.458;2023-11-18T06:03:50;9.40;70.50
38223;DHT22;24024;51.186;6.458;2023-11-18T06:06:19;9.40;70.30
38223;DHT22;24024;51.186;6.458;2023-11-18T06:08:53;9.00;71.50
38223;DHT22;24024;51.186;6.458;2023-11-18T06:11:22;9.20;71.60
38223;DHT22;24024;51.186;6.458;2023-11-18T06:13:52;9.30;71.00
38223;DHT22;24024;51.186;6.458;2023-11-18T06:16:23;9.50;69.90
38223;DHT22;24024;51.186;6.458;2023-11-18T06:18:54;9.30;70.60
38223;DHT22;24024;51.186;6.458;2023-11-18T06:21:25;9.60;70.20
38223;DHT22;24024;51.186;6.458;2023-11-18T06:24:00;9.80;69.50
38223;DHT22;24024;51.186;6.458;2023-11-18T06:26:27;9.80;69.30
38223;DHT22;24024;51.186;6.458;2023-11-18T06:28:55;9.90;69.00
38223;DHT22;24024;51.186;6.458;2023-11-18T06:31:26;10.10;68.50
38223;DHT22;24024;51.186;6.458;2023-11-18T06:33:52;10.10;68.10
38223;DHT22;24024;51.186;6.458;2023-11-18T06:36:20;10.10;68.30
38223;DHT22;24024;51.186;6.458;2023-11-18T06:38:52;10.30;67.70
38223;DHT22;24024;51.186;6.458;2023-11-18T06:41:21;10.20;67.60
38223;DHT22;24024;51.186;6.458;2023-11-18T06:43:53;9.80;68.70
38223;DHT22;24024;51.186;6.458;2023-11-18T06:46:25;10.00;68.60
38223;DHT22;24024;51.186;6.458;2023-11-18T06:48:54;10.00;68.50
38223;DHT22;24024;51.186;6.458;2023-11-18T06:51:24;10.00;68.50
38223;DHT22;24024;51.186;6.458;2023-11-18T06:53:54;10.00;68.30
38223;DHT22;24024;51.186;6.458;2023-11-18T06:56:25;10.00;68.50
38223;DHT22;24024;51.186;6.458;2023-11-18T06:58:53;9.70;68.90
38223;DHT22;24024;51.186;6.458;2023-11-18T07:01:23;9.60;69.50
38223;DHT22;24024;51.186;6.458;2023-11-18T07:03:50;9.70;69.60
38223;DHT22;24024;51.186;6.458;2023-11-18T07:06:22;9.90;69.10
38223;DHT22;24024;51.186;6.458;2023-11-18T07:08:50;9.90;68.50
38223;DHT22;24024;51.186;6.458;2023-11-18T07:11:22;9.90;68.90
38223;DHT22;24024;51.186;6.458;2023-11-18T07:13:51;9.90;68.40
38223;DHT22;24024;51.186;6.458;2023-11-18T07:16:24;9.80;69.20
38223;DHT22;24024;51.186;6.458;2023-11-18T07:18:52;9.60;69.10
38223;DHT22;24024;51.186;6.458;2023-11-18T07:21:19;9.60;69.60
38223;DHT22;24024;51.186;6.458;2023-11-18T07:23:46;9.60;69.50
38223;DHT22;24024;51.186;6.458;2023-11-18T07:26:15;9.70;69.70
38223;DHT22;24024;51.186;6.458;2023-11-18T07:28:42;9.70;69.60
38223;DHT22;24024;51.186;6.458;2023-11-18T07:31:11;9.70;69.80
38223;DHT22;24024;51.186;6.458;2023-11-18T07:33:38;9.80;69.10
38223;DHT22;24024;51.186;6.458;2023-11-18T07:36:09;9.80;69.40
38223;DHT22;24024;51.186;6.458;2023-11-18T07:38:37;9.80;69.50
38223;DHT22;24024;51.186;6.458;2023-11-18T07:41:04;9.70;69.30
38223;DHT22;24024;51.186;6.458;2023-11-18T07:43:35;9.70;69.60
38223;DHT22;24024;51.186;6.458;2023-11-18T07:46:11;9.80;69.50
38223;DHT22;24024;51.186;6.458;2023-11-18T07:48:43;9.60;70.10
38223;DHT22;24024;51.186;6.458;2023-11-18T07:51:14;9.60;70.50
38223;DHT22;24024;51.186;6.458;2023-11-18T07:53:43;9.40;70.80
38223;DHT22;24024;51.186;6.458;2023-11-18T07:56:10;9.70;70.30
38223;DHT22;24024;51.186;6.458;2023-11-18T07:58:39;9.70;70.10
38223;DHT22;24024;51.186;6.458;2023-11-18T08:01:08;9.70;69.80
38223;DHT22;24024;51.186;6.458;2023-11-18T08:03:35;9.70;70.20
38223;DHT22;24024;51.186;6.458;2023-11-18T08:06:06;9.50;70.40
38223;DHT22;24024;51.186;6.458;2023-11-18T08:08:36;9.70;70.40
38223;DHT22;24024;51.186;6.458;2023-11-18T08:11:06;9.90;69.50
38223;DHT22;24024;51.186;6.458;2023-11-18T08:13:35;9.60;70.30
38223;DHT22;24024;51.186;6.458;2023-11-18T08:16:04;9.50;71.10
38223;DHT22;24024;51.186;6.458;2023-11-18T08:18:31;9.50;70.90
38223;DHT22;24024;51.186;6.458;2023-11-18T08:21:00;9.50;71.20
38223;DHT22;24024;51.186;6.458;2023-11-18T08:23:28;9.70;70.50
38223;DHT22;24024;51.186;6.458;2023-11-18T08:25:57;9.80;70.90
38223;DHT22;24024;51.186;6.458;2023-11-18T08:28:24;10.00;69.70
38223;DHT22;24024;51.186;6.458;2023-11-18T08:30:52;10.10;69.50
38223;DHT22;24024;51.186;6.458;2023-11-18T08:33:20;10.10;69.60
38223;DHT22;24024;51.186;6.458;2023-11-18T08:35:51;10.30;69.00
38223;DHT22;24024;51.186;6.458;2023-11-18T08:38:19;10.30;69.00
38223;DHT22;24024;51.186;6.458;2023-11-18T08:40:49;10.30;69.20
38223;DHT22;24024;51.186;6.458;2023-11-18T08:43:18;10.10;69.30
38223;DHT22;24024;51.186;6.458;2023-11-18T08:45:47;10.10;70.00
38223;DHT22;24024;51.186;6.458;2023-11-18T08:48:18;10.30;69.30
38223;DHT22;24024;51.186;6.458;2023-11-18T08:50:45;10.30;68.90
38223;DHT22;24024;51.186;6.458;2023-11-18T08:53:13;10.40;69.00
38223;DHT22;24024;51.186;6.458;2023-11-18T08:55:44;10.50;68.90
38223;DHT22;24024;51.186;6.458;2023-11-18T08:58:23;10.60;68.40
38223;DHT22;24024;51.186;6.458;2023-11-18T09:00:56;10.60;68.50
38223;DHT22;24024;51.186;6.458;2023-11-18T09:03:35;10.60;68.60
38223;DHT22;24024;51.186;6.458;2023-11-18T09:06:06;10.70;68.30
38223;DHT22;24024;51.186;6.458;2023-11-18T09:08:46;10.80;68.00
38223;DHT22;24024;51.186;6.458;2023-11-18T09:11:22;10.80;68.00
38223;DHT22;24024;51.186;6.458;2023-11-18T09:13:50;10.70;68.20
38223;DHT22;24024;51.186;6.458;2023-11-18T09:16:21;10.70;68.60
38223;DHT22;24024;51.186;6.458;2023-11-18T09:18:49;10.70;68.60
38223;DHT22;24024;51.186;6.458;2023-11-18T09:21:17;10.60;68.70
38223;DHT22;24024;51.186;6.458;2023-11-18T09:23:52;10.70;68.90
38223;DHT22;24024;51.186;6.458;2023-11-18T09:26:18;10.60;69.20
38223;DHT22;24024;51.186;6.458;2023-11-18T09:28:48;10.70;68.70
38223;DHT22;24024;51.186;6.458;2023-11-18T09:31:19;10.80;69.00
38223;DHT22;24024;51.186;6.458;2023-11-18T09:33:48;10.80;69.00
38223;DHT22;24024;51.186;6.458;2023-11-18T09:36:19;10.80;69.10
38223;DHT22;24024;51.186;6.458;2023-11-18T09:38:47;10.70;69.40
38223;DHT22;24024;51.186;6.458;2023-11-18T09:41:16;10.60;70.00
38223;DHT22;24024;51.186;6.458;2023-11-18T09:43:45;10.70;69.90
38223;DHT22;24024;51.186;6.458;2023-11-18T09:48:48;10.60;70.10
38223;DHT22;24024;51.186;6.458;2023-11-18T09:51:26;10.80;69.70
38223;DHT22;24024;51.186;6.458;2023-11-18T09:54:01;10.70;69.50
38223;DHT22;24024;51.186;6.458;2023-11-18T09:59:37;10.60;70.10
38223;DHT22;24024;51.186;6.458;2023-11-18T10:02:11;10.40;71.40
38223;DHT22;24024;51.186;6.458;2023-11-18T10:04:43;10.30;71.80
38223;DHT22;24024;51.186;6.458;2023-11-18T10:07:17;10.40;71.60
38223;DHT22;24024;51.186;6.458;2023-11-18T10:09:46;10.50;71.60
38223;DHT22;24024;51.186;6.458;2023-11-18T10:12:17;10.50;71.30
38223;DHT22;24024;51.186;6.458;2023-11-18T10:14:50;10.40;71.90
38223;DHT22;24024;51.186;6.458;2023-11-18T10:17:21;10.40;71.70
38223;DHT22;24024;51.186;6.458;2023-11-18T10:19:56;10.50;71.40
38223;DHT22;24024;51.186;6.458;2023-11-18T10:22:28;10.60;71.20
38223;DHT22;24024;51.186;6.458;2023-11-18T10:24:56;10.60;71.40
38223;DHT22;24024;51.186;6.458;2023-11-18T10:27:27;10.60;71.20
38223;DHT22;24024;51.186;6.458;2023-11-18T10:30:05;10.80;70.70
38223;DHT22;24024;51.186;6.458;2023-11-18T10:32:37;10.80;70.80
38223;DHT22;24024;51.186;6.458;2023-11-18T10:35:06;11.10;70.10
38223;DHT22;24024;51.186;6.458;2023-11-18T10:37:37;11.10;69.90
38223;DHT22;24024;51.186;6.458;2023-11-18T10:40:10;10.90;70.50
38223;DHT22;24024;51.186;6.458;2023-11-18T10:42:40;11.00;70.50
38223;DHT22;24024;51.186;6.458;2023-11-18T10:45:23;11.10;70.40
38223;DHT22;24024;51.186;6.458;2023-11-18T10:47:51;11.10;70.10
38223;DHT22;24024;51.186;6.458;2023-11-18T10:50:22;11.10;70.20
38223;DHT22;24024;51.186;6.458;2023-11-18T10:52:49;11.20;70.10
38223;DHT22;24024;51.186;6.458;2023-11-18T10:55:19;10.90;71.30
38223;DHT22;24024;51.186;6.458;2023-11-18T10:57:46;10.60;73.20
38223;DHT22;24024;51.186;6.458;2023-11-18T11:00:13;10.50;73.90
38223;DHT22;24024;51.186;6.458;2023-11-18T11:02:41;10.30;74.90
38223;DHT22;24024;51.186;6.458;2023-11-18T11:05:11;10.20;75.70
38223;DHT22;24024;51.186;6.458;2023-11-18T11:07:48;10.20;76.30
38223;DHT22;24024;51.186;6.458;2023-11-18T11:10:18;10.10;76.20
38223;DHT22;24024;51.186;6.458;2023-11-18T11:12:54;10.10;76.30
38223;DHT22;24024;51.186;6.458;2023-11-18T11:15:32;10.00;76.70
38223;DHT22;24024;51.186;6.458;2023-11-18T11:18:21;10.10;76.50
38223;DHT22;24024;51.186;6.458;2023-11-18T11:21:14;10.10;76.70
38223;DHT22;24024;51.186;6.458;2023-11-18T11:24:06;10.00;76.90
38223;DHT22;24024;51.186;6.458;2023-11-18T11:29:32;10.10;77.20
38223;DHT22;24024;51.186;6.458;2023-11-18T11:32:28;10.10;77.20
38223;DHT22;24024;51.186;6.458;2023-11-18T11:35:02;10.10;77.10
38223;DHT22;24024;51.186;6.458;2023-11-18T11:37:35;10.10;77.20
38223;DHT22;24024;51.186;6.458;2023-11-18T11:40:04;10.10;77.50
38223;DHT22;24024;51.186;6.458;2023-11-18T11:42:36;10.10;77.90
38223;DHT22;24024;51.186;6.458;2023-11-18T11:45:05;10.20;77.60
38223;DHT22;24024;51.186;6.458;2023-11-18T11:47:35;10.30;77.30
38223;DHT22;24024;51.186;6.458;2023-11-18T11:50:15;10.30;77.30
38223;DHT22;24024;51.186;6.458;2023-11-18T11:52:56;10.40;76.70
38223;DHT22;24024;51.186;6.458;2023-11-18T11:55:38;10.30;76.70
38223;DHT22;24024;51.186;6.458;2023-11-18T11:58:30;10.40;76.40
38223;DHT22;24024;51.186;6.458;2023-11-18T12:01:26;10.30;76.50
38223;DHT22;24024;51.186;6.458;2023-11-18T12:04:05;10.30;76.50
38223;DHT22;24024;51.186;6.458;2023-11-18T12:06:48;10.40;76.60
38223;DHT22;24024;51.186;6.458;2023-11-18T12:09:30;10.30;76.30
38223;DHT22;24024;51.186;6.458;2023-11-18T12:11:59;10.30;76.50
38223;DHT22;24024;51.186;6.458;2023-11-18T12:14:27;10.30;76.60
38223;DHT22;24024;51.186;6.458;2023-11-18T12:17:05;10.50;76.40
38223;DHT22;24024;51.186;6.458;2023-11-18T12:19:36;10.40;76.40
38223;DHT22;24024;51.186;6.458;2023-11-18T12:22:16;10.50;76.70
38223;DHT22;24024;51.186;6.458;2023-11-18T12:32:58;10.30;76.60
38223;DHT22;24024;51.186;6.458;2023-11-18T12:35:27;10.30;76.80
38223;DHT22;24024;51.186;6.458;2023-11-18T12:40:28;10.30;76.50
38223;DHT22;24024;51.186;6.458;2023-11-18T12:43:10;10.50;76.20
38223;DHT22;24024;51.186;6.458;2023-11-18T12:46:00;10.60;75.80
38223;DHT22;24024;51.186;6.458;2023-11-18T12:48:34;10.80;75.20
38223;DHT22;24024;51.186;6.458;2023-11-18T12:51:03;11.00;74.60
38223;DHT22;24024;51.186;6.458;2023-11-18T12:53:36;11.00;74.70
38223;DHT22;24024;51.186;6.458;2023-11-18T12:56:03;10.90;75.00
38223;DHT22;24024;51.186;6.458;2023-11-18T12:58:30;10.80;75.50
38223;DHT22;24024;51.186;6.458;2023-11-18T13:01:00;10.70;75.70
38223;DHT22;24024;51.186;6.458;2023-11-18T13:03:29;10.60;76.40
38223;DHT22;24024;51.186;6.458;2023-11-18T13:05:56;10.60;76.00
38223;DHT22;24024;51.186;6.458;2023-11-18T13:08:23;10.50;76.50
38223;DHT22;24024;51.186;6.458;2023-11-18T13:10:55;10.70;75.80
38223;DHT22;24024;51.186;6.458;2023-11-18T13:13:25;10.80;75.40
38223;DHT22;24024;51.186;6.458;2023-11-18T13:15:53;10.80;75.30
38223;DHT22;24024;51.186;6.458;2023-11-18T13:18:22;10.70;75.50
38223;DHT22;24024;51.186;6.458;2023-11-18T13:20:56;10.60;76.20
38223;DHT22;24024;51.186;6.458;2023-11-18T13:23:29;10.50;76.40
38223;DHT22;24024;51.186;6.458;2023-11-18T13:25:59;10.60;76.20
38223;DHT22;24024;51.186;6.458;2023-11-18T13:28:32;10.60;76.00
38223;DHT22;24024;51.186;6.458;2023-11-18T13:30:58;10.50;76.40
38223;DHT22;24024;51.186;6.458;2023-11-18T13:33:25;10.60;76.20
38223;DHT22;24024;51.186;6.458;2023-11-18T13:35:52;10.50;76.30
38223;DHT22;24024;51.186;6.458;2023-11-18T13:38:19;10.40;76.70
38223;DHT22;24024;51.186;6.458;2023-11-18T13:40:51;10.50;76.70
38223;DHT22;24024;51.186;6.458;2023-11-18T13:43:20;10.60;76.40
38223;DHT22;24024;51.186;6.458;2023-11-18T13:45:52;10.60;75.80
38223;DHT22;24024;51.186;6.458;2023-11-18T13:48:27;10.40;76.60
38223;DHT22;24024;51.186;6.458;2023-11-18T13:50:55;10.40;77.00
38223;DHT22;24024;51.186;6.458;2023-11-18T13:53:25;10.20;77.40
38223;DHT22;24024;51.186;6.458;2023-11-18T13:55:52;10.10;77.80
38223;DHT22;24024;51.186;6.458;2023-11-18T13:58:20;10.00;78.20
38223;DHT22;24024;51.186;6.458;2023-11-18T14:00:47;10.00;78.50
38223;DHT22;24024;51.186;6.458;2023-11-18T14:03:15;9.90;78.50
38223;DHT22;24024;51.186;6.458;2023-11-18T14:05:43;9.90;78.90
38223;DHT22;24024;51.186;6.458;2023-11-18T14:08:17;9.80;79.00
38223;DHT22;24024;51.186;6.458;2023-11-18T14:10:47;9.80;79.20
38223;DHT22;24024;51.186;6.458;2023-11-18T14:13:28;9.90;79.10
38223;DHT22;24024;51.186;6.458;2023-11-18T14:16:02;9.80;79.00
38223;DHT22;24024;51.186;6.458;2023-11-18T14:18:39;9.70;79.30
38223;DHT22;24024;51.186;6.458;2023-11-18T14:21:11;9.80;79.60
38223;DHT22;24024;51.186;6.458;2023-11-18T14:23:43;9.80;79.70
38223;DHT22;24024;51.186;6.458;2023-11-18T14:26:12;9.90;79.10
38223;DHT22;24024;51.186;6.458;2023-11-18T14:28:42;9.90;79.20
38223;DHT22;24024;51.186;6.458;2023-11-18T14:31:10;9.90;79.20
38223;DHT22;24024;51.186;6.458;2023-11-18T14:33:39;10.00;79.00
38223;DHT22;24024;51.186;6.458;2023-11-18T14:36:09;9.80;79.20
38223;DHT22;24024;51.186;6.458;2023-11-18T14:38:38;9.70;79.70
38223;DHT22;24024;51.186;6.458;2023-11-18T14:41:05;9.60;80.20
38223;DHT22;24024;51.186;6.458;2023-11-18T14:43:34;9.60;80.30
38223;DHT22;24024;51.186;6.458;2023-11-18T14:46:01;9.50;80.70
38223;DHT22;24024;51.186;6.458;2023-11-18T14:48:30;9.50;80.90
38223;DHT22;24024;51.186;6.458;2023-11-18T14:50:57;9.60;80.90
38223;DHT22;24024;51.186;6.458;2023-11-18T14:53:26;9.60;80.70
38223;DHT22;24024;51.186;6.458;2023-11-18T14:55:58;9.60;80.70
38223;DHT22;24024;51.186;6.458;2023-11-18T14:58:24;9.50;80.90
38223;DHT22;24024;51.186;6.458;2023-11-18T15:00:52;9.60;80.80
38223;DHT22;24024;51.186;6.458;2023-11-18T15:03:23;9.60;80.90
38223;DHT22;24024;51.186;6.458;2023-11-18T15:05:55;9.60;80.70
38223;DHT22;24024;51.186;6.458;2023-11-18T15:08:24;9.60;81.00
38223;DHT22;24024;51.186;6.458;2023-11-18T15:10:54;9.60;80.90
38223;DHT22;24024;51.186;6.458;2023-11-18T15:13:20;9.70;80.50
38223;DHT22;24024;51.186;6.458;2023-11-18T15:15:49;9.90;79.90
38223;DHT22;24024;51.186;6.458;2023-11-18T15:18:16;9.90;80.30
38223;DHT22;24024;51.186;6.458;2023-11-18T15:20:47;9.90;79.90
38223;DHT22;24024;51.186;6.458;2023-11-18T15:23:15;9.80;80.10
38223;DHT22;24024;51.186;6.458;2023-11-18T15:25:49;9.80;80.60
38223;DHT22;24024;51.186;6.458;2023-11-18T15:28:21;9.90;80.20
38223;DHT22;24024;51.186;6.458;2023-11-18T15:30:47;9.60;80.80
38223;DHT22;24024;51.186;6.458;2023-11-18T15:33:17;9.50;81.20
38223;DHT22;24024;51.186;6.458;2023-11-18T15:35:47;9.50;81.60
38223;DHT22;24024;51.186;6.458;2023-11-18T15:38:14;9.50;81.90
38223;DHT22;24024;51.186;6.458;2023-11-18T15:40:45;9.40;82.20
38223;DHT22;24024;51.186;6.458;2023-11-18T15:43:16;9.40;82.10
38223;DHT22;24024;51.186;6.458;2023-11-18T15:45:43;9.40;82.40
38223;DHT22;24024;51.186;6.458;2023-11-18T15:48:15;9.40;82.30
38223;DHT22;24024;51.186;6.458;2023-11-18T15:50:45;9.40;82.30
38223;DHT22;24024;51.186;6.458;2023-11-18T15:53:14;9.30;82.60
38223;DHT22;24024;51.186;6.458;2023-11-18T15:55:44;9.30;82.60
38223;DHT22;24024;51.186;6.458;2023-11-18T15:58:15;9.30;82.80
38223;DHT22;24024;51.186;6.458;2023-11-18T16:00:45;9.50;82.40
38223;DHT22;24024;51.186;6.458;2023-11-18T16:03:23;9.50;82.10
38223;DHT22;24024;51.186;6.458;2023-11-18T16:05:52;9.60;81.90
38223;DHT22;24024;51.186;6.458;2023-11-18T16:08:19;9.50;82.10
38223;DHT22;24024;51.186;6.458;2023-11-18T16:10:46;9.50;82.30
38223;DHT22;24024;51.186;6.458;2023-11-18T16:13:12;9.50;82.20
38223;DHT22;24024;51.186;6.458;2023-11-18T16:15:40;9.40;82.40
38223;DHT22;24024;51.186;6.458;2023-11-18T16:18:07;9.40;82.60
38223;DHT22;24024;51.186;6.458;2023-11-18T16:20:39;9.40;82.50